sensor_id;sensor_type;location;lat;lon;timestamp;P1;durP1;ratioP1;P2;durP2;ratioP2
76039;SDS011;64736;50.462;4.850;2023-06-22T00:02:17;11.35;;;7.57;;
76039;SDS011;64736;50.462;4.850;2023-06-22T00:04:43;10.63;;;7.25;;
76039;SDS011;64736;50.462;4.850;2023-06-22T00:07:10;11.40;;;7.40;;
76039;SDS011;64736;50.462;4.850;2023-06-22T00:09:35;10.00;;;7.35;;
76039;SDS011;64736;50.462;4.850;2023-06-22T00:12:01;9.60;;;7.30;;
76039;SDS011;64736;50.462;4.850;2023-06-22T00:14:27;9.93;;;7.90;;
76039;SDS011;64736;50.462;4.850;2023-06-22T00:16:53;11.20;;;7.60;;
76039;SDS011;64736;50.462;4.850;2023-06-22T00:19:23;11.05;;;7.43;;
76039;SDS011;64736;50.462;4.850;2023-06-22T00:21:50;6.80;;;5.00;;
76039;SDS011;64736;50.462;4.850;2023-06-22T00:24:19;7.47;;;5.10;;
76039;SDS011;64736;50.462;4.850;2023-06-22T00:26:45;9.15;;;5.47;;
76039;SDS011;64736;50.462;4.850;2023-06-22T00:29:11;7.28;;;5.00;;
76039;SDS011;64736;50.462;4.850;2023-06-22T00:31:37;8.40;;;5.43;;
76039;SDS011;64736;50.462;4.850;2023-06-22T00:34:03;9.63;;;5.18;;
76039;SDS011;64736;50.462;4.850;2023-06-22T00:36:28;7.82;;;5.63;;
76039;SDS011;64736;50.462;4.850;2023-06-22T00:38:54;7.50;;;5.05;;
76039;SDS011;64736;50.462;4.850;2023-06-22T00:41:20;8.40;;;5.30;;
76039;SDS011;64736;50.462;4.850;2023-06-22T00:43:46;7.28;;;4.85;;
76039;SDS011;64736;50.462;4.850;2023-06-22T00:46:11;8.50;;;5.47;;
76039;SDS011;64736;50.462;4.850;2023-06-22T00:48:37;8.13;;;5.53;;
76039;SDS011;64736;50.462;4.850;2023-06-22T00:51:05;8.00;;;5.57;;
76039;SDS011;64736;50.462;4.850;2023-06-22T00:53:31;8.57;;;5.70;;
76039;SDS011;64736;50.462;4.850;2023-06-22T00:56:00;9.45;;;5.40;;
76039;SDS011;64736;50.462;4.850;2023-06-22T00:58:28;7.35;;;5.07;;
76039;SDS011;64736;50.462;4.850;2023-06-22T01:00:55;8.50;;;5.65;;
76039;SDS011;64736;50.462;4.850;2023-06-22T01:03:20;8.65;;;6.80;;
76039;SDS011;64736;50.462;4.850;2023-06-22T01:05:46;7.80;;;5.88;;
76039;SDS011;64736;50.462;4.850;2023-06-22T01:08:26;10.25;;;8.07;;
76039;SDS011;64736;50.462;4.850;2023-06-22T01:11:10;10.55;;;7.28;;
76039;SDS011;64736;50.462;4.850;2023-06-22T01:16:44;9.85;;;7.32;;
76039;SDS011;64736;50.462;4.850;2023-06-22T01:21:43;10.20;;;7.47;;
76039;SDS011;64736;50.462;4.850;2023-06-22T01:29:25;10.65;;;7.78;;
76039;SDS011;64736;50.462;4.850;2023-06-22T01:31:52;10.35;;;7.40;;
76039;SDS011;64736;50.462;4.850;2023-06-22T01:34:21;11.20;;;7.68;;
76039;SDS011;64736;50.462;4.850;2023-06-22T01:36:49;11.00;;;7.85;;
76039;SDS011;64736;50.462;4.850;2023-06-22T01:39:16;11.50;;;7.55;;
76039;SDS011;64736;50.462;4.850;2023-06-22T01:41:43;8.85;;;6.32;;
76039;SDS011;64736;50.462;4.850;2023-06-22T01:44:09;10.32;;;7.18;;
76039;SDS011;64736;50.462;4.850;2023-06-22T01:46:35;10.38;;;7.22;;
76039;SDS011;64736;50.462;4.850;2023-06-22T01:49:02;11.40;;;8.15;;
76039;SDS011;64736;50.462;4.850;2023-06-22T01:51:29;12.43;;;7.38;;
76039;SDS011;64736;50.462;4.850;2023-06-22T01:53:55;11.43;;;6.85;;
76039;SDS011;64736;50.462;4.850;2023-06-22T01:56:21;8.68;;;6.18;;
76039;SDS011;64736;50.462;4.850;2023-06-22T01:59:25;7.68;;;5.47;;
76039;SDS011;64736;50.462;4.850;2023-06-22T02:01:44;8.15;;;5.20;;
76039;SDS011;64736;50.462;4.850;2023-06-22T02:04:26;7.90;;;5.35;;
76039;SDS011;64736;50.462;4.850;2023-06-22T02:06:58;7.38;;;5.22;;
76039;SDS011;64736;50.462;4.850;2023-06-22T02:09:26;7.07;;;4.95;;
76039;SDS011;64736;50.462;4.850;2023-06-22T02:11:56;7.70;;;5.68;;
76039;SDS011;64736;50.462;4.850;2023-06-22T02:14:24;7.10;;;4.40;;
76039;SDS011;64736;50.462;4.850;2023-06-22T02:16:50;7.03;;;4.35;;
76039;SDS011;64736;50.462;4.850;2023-06-22T02:19:22;8.07;;;4.90;;
76039;SDS011;64736;50.462;4.850;2023-06-22T02:21:49;6.47;;;4.20;;
76039;SDS011;64736;50.462;4.850;2023-06-22T02:24:15;9.15;;;4.68;;
76039;SDS011;64736;50.462;4.850;2023-06-22T02:26:41;7.10;;;4.55;;
76039;SDS011;64736;50.462;4.850;2023-06-22T02:29:09;9.45;;;4.72;;
76039;SDS011;64736;50.462;4.850;2023-06-22T02:31:35;9.07;;;5.13;;
76039;SDS011;64736;50.462;4.850;2023-06-22T02:34:01;6.85;;;4.10;;
76039;SDS011;64736;50.462;4.850;2023-06-22T02:36:26;8.85;;;4.78;;
76039;SDS011;64736;50.462;4.850;2023-06-22T02:38:56;15.93;;;6.45;;
76039;SDS011;64736;50.462;4.850;2023-06-22T02:41:24;11.00;;;5.95;;
76039;SDS011;64736;50.462;4.850;2023-06-22T02:43:49;11.52;;;6.35;;
76039;SDS011;64736;50.462;4.850;2023-06-22T02:46:15;9.10;;;6.32;;
76039;SDS011;64736;50.462;4.850;2023-06-22T02:48:41;9.90;;;6.45;;
76039;SDS011;64736;50.462;4.850;2023-06-22T02:51:07;11.93;;;7.13;;
76039;SDS011;64736;50.462;4.850;2023-06-22T02:53:33;11.80;;;7.22;;
76039;SDS011;64736;50.462;4.850;2023-06-22T02:56:01;11.32;;;6.88;;
76039;SDS011;64736;50.462;4.850;2023-06-22T02:58:31;14.10;;;7.60;;
76039;SDS011;64736;50.462;4.850;2023-06-22T03:01:04;10.15;;;6.88;;
76039;SDS011;64736;50.462;4.850;2023-06-22T03:03:31;10.85;;;7.30;;
76039;SDS011;64736;50.462;4.850;2023-06-22T03:05:56;11.27;;;7.15;;
76039;SDS011;64736;50.462;4.850;2023-06-22T03:08:22;10.93;;;6.97;;
76039;SDS011;64736;50.462;4.850;2023-06-22T03:10:48;10.77;;;7.55;;
76039;SDS011;64736;50.462;4.850;2023-06-22T03:13:14;10.77;;;7.35;;
76039;SDS011;64736;50.462;4.850;2023-06-22T03:15:39;11.82;;;7.45;;
76039;SDS011;64736;50.462;4.850;2023-06-22T03:18:05;11.10;;;7.03;;
76039;SDS011;64736;50.462;4.850;2023-06-22T03:20:31;12.07;;;7.50;;
76039;SDS011;64736;50.462;4.850;2023-06-22T03:22:58;10.43;;;7.35;;
76039;SDS011;64736;50.462;4.850;2023-06-22T03:25:24;10.35;;;7.00;;
76039;SDS011;64736;50.462;4.850;2023-06-22T03:27:50;9.23;;;5.90;;
76039;SDS011;64736;50.462;4.850;2023-06-22T03:30:16;10.15;;;5.78;;
76039;SDS011;64736;50.462;4.850;2023-06-22T03:32:42;9.48;;;6.32;;
76039;SDS011;64736;50.462;4.850;2023-06-22T03:35:08;9.20;;;6.57;;
76039;SDS011;64736;50.462;4.850;2023-06-22T03:37:34;9.90;;;6.45;;
76039;SDS011;64736;50.462;4.850;2023-06-22T03:40:00;9.30;;;5.85;;
76039;SDS011;64736;50.462;4.850;2023-06-22T03:42:26;10.38;;;6.20;;
76039;SDS011;64736;50.462;4.850;2023-06-22T03:44:52;9.85;;;6.47;;
76039;SDS011;64736;50.462;4.850;2023-06-22T03:47:17;8.32;;;5.72;;
76039;SDS011;64736;50.462;4.850;2023-06-22T03:49:43;9.13;;;6.07;;
76039;SDS011;64736;50.462;4.850;2023-06-22T03:52:09;10.25;;;6.47;;
76039;SDS011;64736;50.462;4.850;2023-06-22T03:54:36;12.00;;;6.20;;
76039;SDS011;64736;50.462;4.850;2023-06-22T03:57:02;10.75;;;6.55;;
76039;SDS011;64736;50.462;4.850;2023-06-22T03:59:28;11.20;;;7.00;;
76039;SDS011;64736;50.462;4.850;2023-06-22T04:01:53;10.40;;;6.38;;
76039;SDS011;64736;50.462;4.850;2023-06-22T04:04:19;10.70;;;7.70;;
76039;SDS011;64736;50.462;4.850;2023-06-22T04:06:46;10.30;;;7.22;;
76039;SDS011;64736;50.462;4.850;2023-06-22T04:09:11;10.85;;;7.10;;
76039;SDS011;64736;50.462;4.850;2023-06-22T04:11:37;9.75;;;6.95;;
76039;SDS011;64736;50.462;4.850;2023-06-22T04:14:03;11.82;;;7.85;;
76039;SDS011;64736;50.462;4.850;2023-06-22T04:16:29;12.25;;;9.00;;
76039;SDS011;64736;50.462;4.850;2023-06-22T04:18:54;12.07;;;7.53;;
76039;SDS011;64736;50.462;4.850;2023-06-22T04:21:20;11.65;;;7.75;;
76039;SDS011;64736;50.462;4.850;2023-06-22T04:23:46;11.25;;;7.40;;
76039;SDS011;64736;50.462;4.850;2023-06-22T04:26:13;11.63;;;8.20;;
76039;SDS011;64736;50.462;4.850;2023-06-22T04:28:41;11.88;;;7.43;;
76039;SDS011;64736;50.462;4.850;2023-06-22T04:31:07;11.07;;;7.22;;
76039;SDS011;64736;50.462;4.850;2023-06-22T04:33:33;12.45;;;7.38;;
76039;SDS011;64736;50.462;4.850;2023-06-22T04:35:59;10.50;;;7.28;;
76039;SDS011;64736;50.462;4.850;2023-06-22T04:38:29;12.55;;;7.43;;
76039;SDS011;64736;50.462;4.850;2023-06-22T04:40:58;12.60;;;8.13;;
76039;SDS011;64736;50.462;4.850;2023-06-22T04:43:26;11.73;;;7.65;;
76039;SDS011;64736;50.462;4.850;2023-06-22T04:45:58;13.02;;;8.32;;
76039;SDS011;64736;50.462;4.850;2023-06-22T04:48:29;11.05;;;7.63;;
76039;SDS011;64736;50.462;4.850;2023-06-22T04:50:58;11.02;;;7.65;;
76039;SDS011;64736;50.462;4.850;2023-06-22T04:53:29;13.55;;;8.77;;
76039;SDS011;64736;50.462;4.850;2023-06-22T04:55:56;12.98;;;7.70;;
76039;SDS011;64736;50.462;4.850;2023-06-22T04:58:21;12.32;;;8.10;;
76039;SDS011;64736;50.462;4.850;2023-06-22T05:00:47;13.77;;;7.75;;
76039;SDS011;64736;50.462;4.850;2023-06-22T05:03:13;11.52;;;7.47;;
76039;SDS011;64736;50.462;4.850;2023-06-22T05:05:39;12.70;;;8.85;;
76039;SDS011;64736;50.462;4.850;2023-06-22T05:08:04;11.45;;;7.40;;
76039;SDS011;64736;50.462;4.850;2023-06-22T05:10:32;14.95;;;8.70;;
76039;SDS011;64736;50.462;4.850;2023-06-22T05:12:58;12.35;;;8.20;;
76039;SDS011;64736;50.462;4.850;2023-06-22T05:15:24;11.80;;;7.70;;
76039;SDS011;64736;50.462;4.850;2023-06-22T05:17:53;11.35;;;7.70;;
76039;SDS011;64736;50.462;4.850;2023-06-22T05:20:19;11.35;;;7.75;;
76039;SDS011;64736;50.462;4.850;2023-06-22T05:22:45;11.55;;;7.88;;
76039;SDS011;64736;50.462;4.850;2023-06-22T05:25:11;11.90;;;8.07;;
76039;SDS011;64736;50.462;4.850;2023-06-22T05:27:37;11.57;;;8.10;;
76039;SDS011;64736;50.462;4.850;2023-06-22T05:30:06;14.05;;;8.57;;
76039;SDS011;64736;50.462;4.850;2023-06-22T05:32:33;14.27;;;8.93;;
76039;SDS011;64736;50.462;4.850;2023-06-22T05:34:59;12.45;;;8.35;;
76039;SDS011;64736;50.462;4.850;2023-06-22T05:37:25;11.10;;;7.72;;
76039;SDS011;64736;50.462;4.850;2023-06-22T05:39:51;15.52;;;9.23;;
76039;SDS011;64736;50.462;4.850;2023-06-22T05:42:17;15.18;;;8.25;;
76039;SDS011;64736;50.462;4.850;2023-06-22T05:44:43;13.50;;;8.68;;
76039;SDS011;64736;50.462;4.850;2023-06-22T05:47:08;13.07;;;7.80;;
76039;SDS011;64736;50.462;4.850;2023-06-22T05:49:34;12.60;;;9.27;;
76039;SDS011;64736;50.462;4.850;2023-06-22T05:52:00;12.63;;;8.68;;
76039;SDS011;64736;50.462;4.850;2023-06-22T05:54:29;15.18;;;9.90;;
76039;SDS011;64736;50.462;4.850;2023-06-22T05:56:55;15.98;;;9.05;;
76039;SDS011;64736;50.462;4.850;2023-06-22T05:59:21;16.70;;;9.07;;
76039;SDS011;64736;50.462;4.850;2023-06-22T06:01:47;16.92;;;10.23;;
76039;SDS011;64736;50.462;4.850;2023-06-22T06:04:18;14.57;;;10.82;;
76039;SDS011;64736;50.462;4.850;2023-06-22T06:06:44;14.85;;;9.45;;
76039;SDS011;64736;50.462;4.850;2023-06-22T06:09:12;16.35;;;10.23;;
76039;SDS011;64736;50.462;4.850;2023-06-22T06:11:39;15.73;;;10.20;;
76039;SDS011;64736;50.462;4.850;2023-06-22T06:14:05;17.27;;;11.27;;
76039;SDS011;64736;50.462;4.850;2023-06-22T06:16:31;14.52;;;11.00;;
76039;SDS011;64736;50.462;4.850;2023-06-22T06:18:57;17.65;;;11.20;;
76039;SDS011;64736;50.462;4.850;2023-06-22T06:21:23;15.75;;;11.40;;
76039;SDS011;64736;50.462;4.850;2023-06-22T06:23:49;21.95;;;12.98;;
76039;SDS011;64736;50.462;4.850;2023-06-22T06:26:15;16.98;;;11.52;;
76039;SDS011;64736;50.462;4.850;2023-06-22T06:28:52;18.27;;;10.98;;
76039;SDS011;64736;50.462;4.850;2023-06-22T06:31:18;21.42;;;11.82;;
76039;SDS011;64736;50.462;4.850;2023-06-22T06:33:46;17.98;;;12.32;;
76039;SDS011;64736;50.462;4.850;2023-06-22T06:36:12;18.85;;;11.70;;
76039;SDS011;64736;50.462;4.850;2023-06-22T06:38:37;17.20;;;11.93;;
76039;SDS011;64736;50.462;4.850;2023-06-22T06:41:03;16.42;;;11.02;;
76039;SDS011;64736;50.462;4.850;2023-06-22T06:43:29;16.70;;;10.70;;
76039;SDS011;64736;50.462;4.850;2023-06-22T06:45:54;18.33;;;12.50;;
76039;SDS011;64736;50.462;4.850;2023-06-22T06:48:20;17.38;;;13.18;;
76039;SDS011;64736;50.462;4.850;2023-06-22T06:50:46;17.88;;;12.48;;
76039;SDS011;64736;50.462;4.850;2023-06-22T06:53:11;16.95;;;12.35;;
76039;SDS011;64736;50.462;4.850;2023-06-22T06:55:37;16.58;;;12.52;;
76039;SDS011;64736;50.462;4.850;2023-06-22T06:58:03;16.50;;;12.88;;
76039;SDS011;64736;50.462;4.850;2023-06-22T07:00:32;19.05;;;13.00;;
76039;SDS011;64736;50.462;4.850;2023-06-22T07:02:58;16.35;;;12.95;;
76039;SDS011;64736;50.462;4.850;2023-06-22T07:05:24;16.88;;;12.77;;
76039;SDS011;64736;50.462;4.850;2023-06-22T07:07:49;15.68;;;12.70;;
76039;SDS011;64736;50.462;4.850;2023-06-22T07:10:15;20.77;;;13.75;;
76039;SDS011;64736;50.462;4.850;2023-06-22T07:12:40;18.10;;;13.93;;
76039;SDS011;64736;50.462;4.850;2023-06-22T07:15:07;21.33;;;14.43;;
76039;SDS011;64736;50.462;4.850;2023-06-22T07:17:34;20.67;;;15.73;;
76039;SDS011;64736;50.462;4.850;2023-06-22T07:20:00;19.25;;;14.68;;
76039;SDS011;64736;50.462;4.850;2023-06-22T07:22:27;19.20;;;14.98;;
76039;SDS011;64736;50.462;4.850;2023-06-22T07:24:52;21.67;;;15.43;;
76039;SDS011;64736;50.462;4.850;2023-06-22T07:27:18;20.88;;;14.77;;
76039;SDS011;64736;50.462;4.850;2023-06-22T07:29:44;16.48;;;14.35;;
76039;SDS011;64736;50.462;4.850;2023-06-22T07:32:10;21.67;;;16.02;;
76039;SDS011;64736;50.462;4.850;2023-06-22T07:34:36;19.33;;;14.52;;
76039;SDS011;64736;50.462;4.850;2023-06-22T07:37:01;22.08;;;15.65;;
76039;SDS011;64736;50.462;4.850;2023-06-22T07:39:27;19.58;;;15.70;;
76039;SDS011;64736;50.462;4.850;2023-06-22T07:41:53;20.58;;;15.57;;
76039;SDS011;64736;50.462;4.850;2023-06-22T07:44:19;19.00;;;15.52;;
76039;SDS011;64736;50.462;4.850;2023-06-22T07:46:45;20.73;;;15.73;;
76039;SDS011;64736;50.462;4.850;2023-06-22T07:49:10;19.05;;;15.80;;
76039;SDS011;64736;50.462;4.850;2023-06-22T07:51:37;17.95;;;14.50;;
76039;SDS011;64736;50.462;4.850;2023-06-22T07:54:03;23.23;;;17.58;;
76039;SDS011;64736;50.462;4.850;2023-06-22T07:56:28;21.88;;;16.85;;
76039;SDS011;64736;50.462;4.850;2023-06-22T07:58:54;19.40;;;16.15;;
76039;SDS011;64736;50.462;4.850;2023-06-22T08:01:20;20.58;;;16.27;;
76039;SDS011;64736;50.462;4.850;2023-06-22T08:03:48;19.17;;;15.68;;
76039;SDS011;64736;50.462;4.850;2023-06-22T08:06:14;19.73;;;16.70;;
76039;SDS011;64736;50.462;4.850;2023-06-22T08:08:40;21.67;;;17.27;;
76039;SDS011;64736;50.462;4.850;2023-06-22T08:11:05;22.40;;;18.40;;
76039;SDS011;64736;50.462;4.850;2023-06-22T08:13:31;22.60;;;17.92;;
76039;SDS011;64736;50.462;4.850;2023-06-22T08:15:57;26.15;;;19.15;;
76039;SDS011;64736;50.462;4.850;2023-06-22T08:18:22;24.73;;;19.63;;
76039;SDS011;64736;50.462;4.850;2023-06-22T08:20:48;24.98;;;19.60;;
76039;SDS011;64736;50.462;4.850;2023-06-22T08:23:14;23.10;;;19.65;;
76039;SDS011;64736;50.462;4.850;2023-06-22T08:25:40;22.67;;;20.20;;
76039;SDS011;64736;50.462;4.850;2023-06-22T08:28:05;22.60;;;18.60;;
76039;SDS011;64736;50.462;4.850;2023-06-22T08:30:31;23.40;;;18.67;;
76039;SDS011;64736;50.462;4.850;2023-06-22T08:32:57;22.85;;;19.38;;
76039;SDS011;64736;50.462;4.850;2023-06-22T08:35:22;23.83;;;21.10;;
76039;SDS011;64736;50.462;4.850;2023-06-22T08:37:48;26.23;;;20.10;;
76039;SDS011;64736;50.462;4.850;2023-06-22T08:40:22;24.52;;;20.92;;
76039;SDS011;64736;50.462;4.850;2023-06-22T08:42:48;28.20;;;21.70;;
76039;SDS011;64736;50.462;4.850;2023-06-22T08:45:14;26.92;;;20.50;;
76039;SDS011;64736;50.462;4.850;2023-06-22T08:47:40;24.95;;;22.10;;
76039;SDS011;64736;50.462;4.850;2023-06-22T08:50:06;26.27;;;23.02;;
76039;SDS011;64736;50.462;4.850;2023-06-22T08:52:34;26.10;;;23.30;;
76039;SDS011;64736;50.462;4.850;2023-06-22T08:55:00;27.10;;;23.20;;
76039;SDS011;64736;50.462;4.850;2023-06-22T08:57:26;24.92;;;20.85;;
76039;SDS011;64736;50.462;4.850;2023-06-22T08:59:53;24.45;;;19.83;;
76039;SDS011;64736;50.462;4.850;2023-06-22T09:02:19;23.92;;;20.17;;
76039;SDS011;64736;50.462;4.850;2023-06-22T09:04:47;24.67;;;19.90;;
76039;SDS011;64736;50.462;4.850;2023-06-22T09:07:14;23.08;;;19.80;;
76039;SDS011;64736;50.462;4.850;2023-06-22T09:09:47;23.52;;;20.90;;
76039;SDS011;64736;50.462;4.850;2023-06-22T09:12:12;26.15;;;22.52;;
76039;SDS011;64736;50.462;4.850;2023-06-22T09:14:38;24.60;;;21.50;;
76039;SDS011;64736;50.462;4.850;2023-06-22T09:17:04;26.80;;;23.88;;
76039;SDS011;64736;50.462;4.850;2023-06-22T09:19:29;28.90;;;24.10;;
76039;SDS011;64736;50.462;4.850;2023-06-22T09:21:55;28.60;;;23.83;;
76039;SDS011;64736;50.462;4.850;2023-06-22T09:24:21;30.10;;;26.05;;
76039;SDS011;64736;50.462;4.850;2023-06-22T09:26:46;35.33;;;28.42;;
76039;SDS011;64736;50.462;4.850;2023-06-22T09:29:12;36.25;;;28.38;;
76039;SDS011;64736;50.462;4.850;2023-06-22T09:31:37;34.58;;;28.55;;
76039;SDS011;64736;50.462;4.850;2023-06-22T09:34:03;36.42;;;31.13;;
76039;SDS011;64736;50.462;4.850;2023-06-22T09:36:29;34.75;;;29.48;;
76039;SDS011;64736;50.462;4.850;2023-06-22T09:38:55;38.33;;;31.08;;
76039;SDS011;64736;50.462;4.850;2023-06-22T09:41:23;40.25;;;33.85;;
76039;SDS011;64736;50.462;4.850;2023-06-22T09:43:49;42.78;;;33.67;;
76039;SDS011;64736;50.462;4.850;2023-06-22T09:46:15;42.00;;;33.65;;
76039;SDS011;64736;50.462;4.850;2023-06-22T09:48:42;46.85;;;32.85;;
76039;SDS011;64736;50.462;4.850;2023-06-22T09:51:07;50.05;;;38.65;;
76039;SDS011;64736;50.462;4.850;2023-06-22T09:53:34;50.40;;;38.85;;
76039;SDS011;64736;50.462;4.850;2023-06-22T09:56:01;60.50;;;46.47;;
76039;SDS011;64736;50.462;4.850;2023-06-22T09:58:27;64.47;;;47.50;;
76039;SDS011;64736;50.462;4.850;2023-06-22T10:00:52;68.32;;;50.63;;
76039;SDS011;64736;50.462;4.850;2023-06-22T10:03:19;59.70;;;42.60;;
76039;SDS011;64736;50.462;4.850;2023-06-22T10:05:45;72.38;;;53.20;;
76039;SDS011;64736;50.462;4.850;2023-06-22T10:08:11;73.50;;;53.28;;
76039;SDS011;64736;50.462;4.850;2023-06-22T10:10:36;67.30;;;49.72;;
76039;SDS011;64736;50.462;4.850;2023-06-22T10:13:06;66.57;;;48.78;;
76039;SDS011;64736;50.462;4.850;2023-06-22T10:15:35;66.00;;;46.88;;
76039;SDS011;64736;50.462;4.850;2023-06-22T10:18:00;62.70;;;47.47;;
76039;SDS011;64736;50.462;4.850;2023-06-22T10:20:26;60.95;;;45.60;;
76039;SDS011;64736;50.462;4.850;2023-06-22T10:22:53;54.20;;;43.38;;
76039;SDS011;64736;50.462;4.850;2023-06-22T10:25:18;47.83;;;39.70;;
76039;SDS011;64736;50.462;4.850;2023-06-22T10:27:44;50.47;;;38.13;;
76039;SDS011;64736;50.462;4.850;2023-06-22T10:30:10;49.95;;;38.75;;
76039;SDS011;64736;50.462;4.850;2023-06-22T10:32:38;49.13;;;40.42;;
76039;SDS011;64736;50.462;4.850;2023-06-22T10:35:05;47.20;;;40.63;;
76039;SDS011;64736;50.462;4.850;2023-06-22T10:37:31;46.58;;;37.47;;
76039;SDS011;64736;50.462;4.850;2023-06-22T10:39:56;49.53;;;39.35;;
76039;SDS011;64736;50.462;4.850;2023-06-22T10:42:22;51.38;;;39.90;;
76039;SDS011;64736;50.462;4.850;2023-06-22T10:44:48;48.67;;;38.17;;
76039;SDS011;64736;50.462;4.850;2023-06-22T10:47:14;46.00;;;39.22;;
76039;SDS011;64736;50.462;4.850;2023-06-22T10:49:39;45.58;;;36.92;;
76039;SDS011;64736;50.462;4.850;2023-06-22T10:52:06;50.33;;;40.28;;
76039;SDS011;64736;50.462;4.850;2023-06-22T10:54:33;50.83;;;40.53;;
76039;SDS011;64736;50.462;4.850;2023-06-22T10:57:00;50.78;;;38.97;;
76039;SDS011;64736;50.462;4.850;2023-06-22T10:59:26;50.78;;;40.83;;
76039;SDS011;64736;50.462;4.850;2023-06-22T11:01:52;50.47;;;39.92;;
76039;SDS011;64736;50.462;4.850;2023-06-22T11:04:18;52.50;;;41.17;;
76039;SDS011;64736;50.462;4.850;2023-06-22T11:06:47;51.63;;;41.97;;
76039;SDS011;64736;50.462;4.850;2023-06-22T11:09:14;55.83;;;42.13;;
76039;SDS011;64736;50.462;4.850;2023-06-22T11:11:46;54.58;;;40.13;;
76039;SDS011;64736;50.462;4.850;2023-06-22T11:14:12;48.42;;;39.40;;
76039;SDS011;64736;50.462;4.850;2023-06-22T11:16:38;52.95;;;39.83;;
76039;SDS011;64736;50.462;4.850;2023-06-22T11:19:04;46.80;;;37.22;;
76039;SDS011;64736;50.462;4.850;2023-06-22T11:21:30;47.05;;;34.83;;
76039;SDS011;64736;50.462;4.850;2023-06-22T11:23:57;52.13;;;38.97;;
76039;SDS011;64736;50.462;4.850;2023-06-22T11:26:24;47.45;;;38.53;;
76039;SDS011;64736;50.462;4.850;2023-06-22T11:28:52;57.17;;;45.38;;
76039;SDS011;64736;50.462;4.850;2023-06-22T11:31:18;55.63;;;41.63;;
76039;SDS011;64736;50.462;4.850;2023-06-22T11:33:44;60.60;;;43.92;;
76039;SDS011;64736;50.462;4.850;2023-06-22T11:36:11;59.70;;;44.53;;
76039;SDS011;64736;50.462;4.850;2023-06-22T11:38:37;57.92;;;42.67;;
76039;SDS011;64736;50.462;4.850;2023-06-22T11:41:07;62.78;;;44.70;;
76039;SDS011;64736;50.462;4.850;2023-06-22T11:43:34;56.78;;;42.45;;
76039;SDS011;64736;50.462;4.850;2023-06-22T11:46:00;51.00;;;38.60;;
76039;SDS011;64736;50.462;4.850;2023-06-22T11:48:27;58.40;;;44.22;;
76039;SDS011;64736;50.462;4.850;2023-06-22T11:50:53;50.85;;;38.80;;
76039;SDS011;64736;50.462;4.850;2023-06-22T11:53:20;50.90;;;38.33;;
76039;SDS011;64736;50.462;4.850;2023-06-22T11:55:46;52.67;;;41.03;;
76039;SDS011;64736;50.462;4.850;2023-06-22T11:58:14;47.42;;;37.67;;
76039;SDS011;64736;50.462;4.850;2023-06-22T12:00:39;47.20;;;37.65;;
76039;SDS011;64736;50.462;4.850;2023-06-22T12:03:06;52.28;;;38.00;;
76039;SDS011;64736;50.462;4.850;2023-06-22T12:05:32;52.83;;;39.55;;
76039;SDS011;64736;50.462;4.850;2023-06-22T12:07:58;50.58;;;37.08;;
76039;SDS011;64736;50.462;4.850;2023-06-22T12:10:24;59.88;;;44.35;;
76039;SDS011;64736;50.462;4.850;2023-06-22T12:12:50;60.17;;;42.95;;
76039;SDS011;64736;50.462;4.850;2023-06-22T12:15:16;59.75;;;42.08;;
76039;SDS011;64736;50.462;4.850;2023-06-22T12:17:42;60.17;;;43.35;;
76039;SDS011;64736;50.462;4.850;2023-06-22T12:20:08;58.00;;;41.53;;
76039;SDS011;64736;50.462;4.850;2023-06-22T12:22:34;66.10;;;45.75;;
76039;SDS011;64736;50.462;4.850;2023-06-22T12:25:00;66.18;;;45.90;;
76039;SDS011;64736;50.462;4.850;2023-06-22T12:27:27;68.22;;;47.47;;
76039;SDS011;64736;50.462;4.850;2023-06-22T12:29:52;67.82;;;47.85;;
76039;SDS011;64736;50.462;4.850;2023-06-22T12:32:18;64.47;;;44.90;;
76039;SDS011;64736;50.462;4.850;2023-06-22T12:34:44;56.67;;;42.70;;
76039;SDS011;64736;50.462;4.850;2023-06-22T12:37:10;58.67;;;39.10;;
76039;SDS011;64736;50.462;4.850;2023-06-22T12:39:35;59.85;;;41.35;;
76039;SDS011;64736;50.462;4.850;2023-06-22T12:42:01;55.72;;;38.28;;
76039;SDS011;64736;50.462;4.850;2023-06-22T12:44:27;43.97;;;32.78;;
76039;SDS011;64736;50.462;4.850;2023-06-22T12:46:58;55.53;;;37.70;;
76039;SDS011;64736;50.462;4.850;2023-06-22T12:49:28;44.53;;;30.25;;
76039;SDS011;64736;50.462;4.850;2023-06-22T12:51:57;48.47;;;31.65;;
76039;SDS011;64736;50.462;4.850;2023-06-22T12:54:26;57.85;;;37.60;;
76039;SDS011;64736;50.462;4.850;2023-06-22T12:56:56;50.50;;;33.08;;
76039;SDS011;64736;50.462;4.850;2023-06-22T12:59:27;53.15;;;37.75;;
76039;SDS011;64736;50.462;4.850;2023-06-22T13:01:59;44.13;;;32.05;;
76039;SDS011;64736;50.462;4.850;2023-06-22T13:04:30;47.60;;;32.10;;
76039;SDS011;64736;50.462;4.850;2023-06-22T13:07:02;46.03;;;30.42;;
76039;SDS011;64736;50.462;4.850;2023-06-22T13:09:33;41.85;;;29.25;;
76039;SDS011;64736;50.462;4.850;2023-06-22T13:12:07;42.92;;;29.15;;
76039;SDS011;64736;50.462;4.850;2023-06-22T13:14:38;44.55;;;31.35;;
76039;SDS011;64736;50.462;4.850;2023-06-22T13:17:11;38.88;;;27.85;;
76039;SDS011;64736;50.462;4.850;2023-06-22T13:19:42;35.38;;;24.83;;
76039;SDS011;64736;50.462;4.850;2023-06-22T13:22:33;41.80;;;28.95;;
76039;SDS011;64736;50.462;4.850;2023-06-22T13:25:08;42.15;;;28.30;;
76039;SDS011;64736;50.462;4.850;2023-06-22T13:27:37;44.92;;;30.20;;
76039;SDS011;64736;50.462;4.850;2023-06-22T13:30:05;46.90;;;31.90;;
76039;SDS011;64736;50.462;4.850;2023-06-22T13:32:31;46.00;;;31.73;;
76039;SDS011;64736;50.462;4.850;2023-06-22T13:34:57;47.38;;;29.98;;
76039;SDS011;64736;50.462;4.850;2023-06-22T13:37:22;41.92;;;26.08;;
76039;SDS011;64736;50.462;4.850;2023-06-22T13:39:48;52.17;;;33.30;;
76039;SDS011;64736;50.462;4.850;2023-06-22T13:42:14;48.42;;;35.78;;
76039;SDS011;64736;50.462;4.850;2023-06-22T13:44:39;37.15;;;24.80;;
76039;SDS011;64736;50.462;4.850;2023-06-22T13:47:05;42.85;;;28.52;;
76039;SDS011;64736;50.462;4.850;2023-06-22T13:49:34;42.50;;;29.60;;
76039;SDS011;64736;50.462;4.850;2023-06-22T13:51:59;40.88;;;30.83;;
76039;SDS011;64736;50.462;4.850;2023-06-22T13:54:25;41.30;;;28.30;;
76039;SDS011;64736;50.462;4.850;2023-06-22T13:56:51;41.90;;;27.52;;
76039;SDS011;64736;50.462;4.850;2023-06-22T13:59:16;37.67;;;27.60;;
76039;SDS011;64736;50.462;4.850;2023-06-22T14:01:42;36.22;;;27.58;;
76039;SDS011;64736;50.462;4.850;2023-06-22T14:04:08;36.42;;;26.23;;
76039;SDS011;64736;50.462;4.850;2023-06-22T14:06:35;33.58;;;25.48;;
76039;SDS011;64736;50.462;4.850;2023-06-22T14:09:00;32.67;;;23.83;;
76039;SDS011;64736;50.462;4.850;2023-06-22T14:11:26;27.77;;;21.48;;
76039;SDS011;64736;50.462;4.850;2023-06-22T14:13:54;29.40;;;20.70;;
76039;SDS011;64736;50.462;4.850;2023-06-22T14:16:20;33.28;;;25.30;;
76039;SDS011;64736;50.462;4.850;2023-06-22T14:18:46;31.42;;;23.38;;
76039;SDS011;64736;50.462;4.850;2023-06-22T14:21:11;30.38;;;22.65;;
76039;SDS011;64736;50.462;4.850;2023-06-22T14:23:37;31.45;;;21.63;;
76039;SDS011;64736;50.462;4.850;2023-06-22T14:26:03;30.35;;;22.95;;
76039;SDS011;64736;50.462;4.850;2023-06-22T14:28:28;33.30;;;26.55;;
76039;SDS011;64736;50.462;4.850;2023-06-22T14:30:54;29.00;;;22.83;;
76039;SDS011;64736;50.462;4.850;2023-06-22T14:33:21;30.05;;;22.65;;
76039;SDS011;64736;50.462;4.850;2023-06-22T14:35:46;31.30;;;23.40;;
76039;SDS011;64736;50.462;4.850;2023-06-22T14:38:12;32.60;;;24.77;;